• Join FlightAware (Why Join?)
  • Login
  • US Flag 
04:12PM EDT


 

Airport Tracker/Info


-or-


 

Live Flight TrackerFlight Track Log ✈ N690TW ✈ 08-Mar-2014 ✈ KLAS - KGJT

Flight Track Log - Related Links

Times and Time Zones

All times are in EST time to prevent confusion due to time zone crossing. See the N690TW flight status page for this flight to view local times or setup timezone preferences in your user account.

Time Position Orientation Groundspeed Altitude Reporting Facility
EST Latitude Longitude Course Direction KTS MPH feet Rate Location/Type
03:11PM 36.1061 -115.1475 58° Northeast 142 163 3,300  Level Los Angeles Center
03:13PM 36.1358 -115.0881 58° Northeast 156 180 5,700 1,860 Climbing Los Angeles Center
03:14PM 36.1683 -115.0489 44° Northeast 161 185 7,700 2,040 Climbing Los Angeles Center
03:15PM 36.1994 -115.0103 45° Northeast 149 171 10,000 1,920 Climbing Los Angeles Center
03:16PM 36.2269 -114.9736 47° Northeast 147 169 11,700 1,440 Climbing Los Angeles Center
03:17PM 36.2567 -114.9364 45° Northeast 155 178 13,000 780 Climbing Los Angeles Center
03:18PM 36.2961 -114.8839 47° Northeast 195 224 13,400 960 Climbing Los Angeles Center
03:19PM 36.3361 -114.8344 45° Northeast 204 235 15,000 1,740 Climbing Los Angeles Center
03:20PM 36.3772 -114.7808 46° Northeast 181 208 17,000 1,500 Climbing Los Angeles Center
03:21PM 36.4108 -114.7383 45° Northeast 175 201 18,200 1,440 Climbing Los Angeles Center
03:22PM 36.4431 -114.6975 46° Northeast 167 192 20,000 1,560 Climbing Los Angeles Center
03:23PM 36.4731 -114.6583 46° Northeast 157 181 21,500 1,440 Climbing Los Angeles Center
03:24PM 36.5050 -114.6172 46° Northeast 164 189 23,000 1,560 Climbing Los Angeles Center
03:25PM 36.5458 -114.5656 45° Northeast 173 199 24,800 1,440 Climbing Los Angeles Center
03:26PM 36.5719 -114.5111 59° Northeast 192 221 26,100 1,140 Climbing Los Angeles Center
03:27PM 36.5892 -114.4422 73° East 208 239 27,200 1,020 Climbing Los Angeles Center
03:28PM 36.6058 -114.3725 73° East 210 242 28,300 960 Climbing Los Angeles Center
03:29PM 36.6239 -114.3019 72° East 212 244 29,300 960 Climbing Los Angeles Center
03:30PM 36.6400 -114.2336 74° East 208 239 30,300 780 Climbing Los Angeles Center
03:31PM 36.6575 -114.1658 72° East 199 229 31,000 300 Climbing Los Angeles Center
03:32PM 36.6758 -114.0925 73° East 218 251 31,000  Level Los Angeles Center
03:33PM 36.6992 -113.9983 73° East 236 272 31,000  Level Los Angeles Center
03:34PM 36.7178 -113.9181 74° East 242 278 31,000  Level Los Angeles Center
03:35PM 36.7372 -113.8375 73° East 244 281 31,000  Level Los Angeles Center
03:36PM 36.7572 -113.7575 73° East 243 280 31,000  Level Los Angeles Center
03:37PM 36.7758 -113.6781 74° East 240 276 31,000  Level Los Angeles Center
03:38PM 36.7986 -113.5850 73° East 235 270 31,000  Level Los Angeles Center
03:40PM 36.8175 -113.5075 73° East 235 270 31,000  Level Los Angeles Center
03:41PM 36.8364 -113.4300 73° East 234 269 31,000  Level Los Angeles Center
03:42PM 36.8544 -113.3519 74° East 235 270 31,000  Level Los Angeles Center
03:43PM 36.8722 -113.2744 74° East 233 268 31,000  Level Los Angeles Center
03:44PM 36.8900 -113.1989 74° East 229 264 31,000  Level Los Angeles Center
03:45PM 36.9122 -113.1072 73° East 230 265 31,000  Level Los Angeles Center
03:46PM 36.9294 -113.0300 74° East 231 266 31,000  Level Los Angeles Center
03:47PM 36.9481 -112.9533 73° East 232 267 31,000  Level Los Angeles Center
03:48PM 36.9653 -112.8772 74° East 231 266 31,000  Level Los Angeles Center
03:49PM 36.9828 -112.8053 73° East 224 258 31,000  Level Los Angeles Center
03:50PM 37.0033 -112.7178 74° East 220 253 31,000  Level Los Angeles Center
03:51PM 37.0194 -112.6450 74° East 219 252 31,000  Level Los Angeles Center
03:52PM 37.0372 -112.5706 73° East 223 257 31,000  Level Los Angeles Center
03:53PM 37.0544 -112.4986 73° East 219 252 31,000  Level Los Angeles Center
03:54PM 37.0836 -112.4383 59° Northeast 207 238 31,000  Level Los Angeles Center
03:55PM 37.1153 -112.3847 53° Northeast 194 223 31,000  Level Los Angeles Center
03:56PM 37.1511 -112.3186 56° Northeast 194 223 31,000  Level Los Angeles Center
03:57PM 37.1828 -112.2669 52° Northeast 189 217 31,000  Level Los Angeles Center
03:58PM 37.2125 -112.2131 55° Northeast 189 217 31,000  Level Los Angeles Center
03:59PM 37.2422 -112.1619 54° Northeast 185 213 31,000  Level Los Angeles Center
04:00PM 37.2719 -112.1108 54° Northeast 183 211 31,000  Level Los Angeles Center
04:01PM 37.3078 -112.0475 55° Northeast 185 213 31,000  Level Los Angeles Center
04:02PM 37.3378 -111.9953 54° Northeast 186 214 31,000  Level Los Angeles Center
04:03PM 37.3689 -111.9411 54° Northeast 190 219 31,000  Level Los Angeles Center
04:04PM 37.3872 -111.9078 55° Northeast 192 221 31,000  Level Salt Lake Center
04:05PM 37.4128 -111.8650 53° Northeast 187 215 31,000  Level Denver Center
04:06PM 37.4428 -111.8125 54° Northeast 187 215 31,000  Level Denver Center
04:07PM 37.4722 -111.7611 54° Northeast 187 215 31,000  Level Denver Center
04:08PM 37.5061 -111.6972 56° Northeast 187 215 31,000  Level Denver Center
04:09PM 37.5361 -111.6453 54° Northeast 186 214 31,000  Level Denver Center
04:10PM 37.5642 -111.5933 56° Northeast 184 212 31,000  Level Denver Center
04:11PM 37.5936 -111.5397 55° Northeast 184 212 31,000  Level Denver Center
04:12PM 37.6253 -111.4847 54° Northeast 188 216 31,000  Level Denver Center
04:13PM 37.6603 -111.4203 56° Northeast 188 216 31,000  Level Denver Center
04:14PM 37.6914 -111.3664 54° Northeast 188 216 31,000  Level Salt Lake Center
04:15PM 37.7192 -111.3114 57° Northeast 187 215 31,000  Level Denver Center
04:16PM 37.7492 -111.2578 55° Northeast 188 216 31,000  Level Denver Center
04:17PM 37.7817 -111.2014 54° Northeast 196 226 31,000  Level Denver Center
04:18PM 37.8131 -111.1406 57° Northeast 204 235 31,000  Level Denver Center
04:19PM 37.8533 -111.0689 55° Northeast 208 239 31,000  Level Denver Center
04:20PM 37.8869 -111.0103 54° Northeast 206 237 31,000  Level Salt Lake Center
04:21PM 37.9192 -110.9492 56° Northeast 208 239 31,000  Level Salt Lake Center
04:22PM 37.9525 -110.8872 56° Northeast 210 242 31,000  Level Salt Lake Center
04:23PM 37.9903 -110.8189 55° Northeast 212 244 31,000 -60 Level Salt Lake Center
04:24PM 38.0239 -110.7603 54° Northeast 213 245 30,900 -540 Descending Salt Lake Center
04:25PM 38.0567 -110.6989 56° Northeast 217 250 29,900 -1,020 Descending Salt Lake Center
04:26PM 38.0953 -110.6275 55° Northeast 220 253 28,800 -960 Descending Salt Lake Center
04:28PM 38.1283 -110.5661 56° Northeast 219 252 27,900 -840 Descending Denver Center
04:29PM 38.1661 -110.4947 56° Northeast 219 252 27,100 -780 Descending Denver Center
04:30PM 38.2008 -110.4336 54° Northeast 220 253 26,300 -840 Descending Denver Center
04:31PM 38.2400 -110.3586 56° Northeast 224 258 25,400 -660 Descending Denver Center
04:32PM 38.2747 -110.2953 55° Northeast 228 262 25,000 -240 Descending Denver Center
04:33PM 38.3114 -110.2228 57° Northeast 223 257 25,000  Level Denver Center
04:34PM 38.3461 -110.1631 53° Northeast 222 255 25,000  Level Denver Center
04:35PM 38.3775 -110.1017 57° Northeast 216 249 25,000  Level Salt Lake Center
04:36PM 38.4153 -110.0303 56° Northeast 217 250 25,000  Level Salt Lake Center
04:37PM 38.4475 -109.9694 56° Northeast 217 250 25,000  Level Salt Lake Center
04:38PM 38.4856 -109.8975 56° Northeast 218 251 25,000  Level Salt Lake Center
04:39PM 38.5189 -109.8367 55° Northeast 219 252 25,000  Level Salt Lake Center
04:40PM 38.5522 -109.7753 55° Northeast 220 253 25,000  Level Salt Lake Center
04:41PM 38.5892 -109.7017 57° Northeast 220 253 25,000  Level Salt Lake Center
04:42PM 38.6214 -109.6394 56° Northeast 220 253 25,000  Level Salt Lake Center
04:43PM 38.6592 -109.5672 56° Northeast 220 253 25,000  Level Salt Lake Center
04:44PM 38.6914 -109.5050 56° Northeast 219 252 25,000  Level Salt Lake Center
04:45PM 38.7300 -109.4322 56° Northeast 220 253 25,000  Level Salt Lake Center
04:46PM 38.7631 -109.3703 56° Northeast 221 254 25,000  Level Salt Lake Center
04:47PM 38.7942 -109.3075 58° Northeast 220 253 25,000 -720 Level Salt Lake Center
04:48PM 38.8336 -109.2306 57° Northeast 224 258 23,600 -1,560 Descending Salt Lake Center
04:49PM 38.8692 -109.1664 55° Northeast 229 264 21,900 -1,860 Descending Salt Lake Center
04:50PM 38.9097 -109.0844 58° Northeast 236 272 19,800 -1,980 Descending Salt Lake Center
04:51PM 38.9558 -108.9958 56° Northeast 253 291 17,600 -1,980 Descending Denver Center
04:52PM 38.9989 -108.9153 55° Northeast 254 292 15,400 -2,100 Descending Denver Center
04:53PM 39.0358 -108.8433 57° Northeast 242 278 13,300 -2,100 Descending Denver Center
04:54PM 39.0997 -108.8097 22° Northeast 251 289 11,100 -2,160 Descending Denver Center
04:55PM 39.1692 -108.7731 22° Northeast 251 289 8,900 -1,560 Descending Denver Center
04:56PM 39.2178 -108.7489 21° North 208 239 8,000 -840 Descending Denver Center
04:57PM 39.2108 -108.6858 98° East 186 214 7,300 -780 Descending Denver Center
04:58PM 39.1828 -108.6325 124° Southeast 171 197 6,500 -780 Descending Denver Center
05:00PM 39.1578 -108.5861 125° Southeast 161 185 5,700 -840 Descending Denver Center
05:01PM 39.1353 -108.5464 126° Southeast 130 150 4,900 -420 Descending Denver Center
05:02PM 39.1175 -108.5125 124° Southeast 126 145 4,800 -120 Descending Denver Center